EJU1131 LTFM-LGSK
Flight info
| Callsign | EJU1131 |
|---|---|
| Flight time | 0h 59m |
| Altitude | 36000 |
| Route | BARPE1G/17R BARPE UG12 GOLDO UM603 TSL UL617 IBIDI |
| Aircraft | A20N/M-SDE2E3FGHIRWXY/LB1 |
Departure
| Time | 2026-04-24 20:47 |
|---|---|
| Airport | İstanbul Airport (LTFM) |
Arrival
| Time | 2026-04-24 21:46 |
|---|---|
| Airport | Skiathos Island National Airport (LGSK) |
| Time | Latitude | Longitude | Altitude | Speed | Heading |
|---|---|---|---|---|---|
| 2026-04-24 20:21 | 41.26608 | 28.74145 | 330 ft | 0 kts | 88° |
| 2026-04-24 20:30 | 41.26608 | 28.74138 | 329 ft | 2 kts | 88° |
| 2026-04-24 20:30 | 41.26607 | 28.74116 | 332 ft | 2 kts | 88° |
| 2026-04-24 20:30 | 41.26607 | 28.74095 | 331 ft | 2 kts | 87° |
| 2026-04-24 20:30 | 41.26606 | 28.74073 | 333 ft | 2 kts | 80° |
| 2026-04-24 20:31 | 41.26597 | 28.74058 | 320 ft | 2 kts | 0° |
| 2026-04-24 20:31 | 41.26590 | 28.74058 | 320 ft | 0 kts | 0° |
| 2026-04-24 20:35 | 41.26596 | 28.74057 | 320 ft | 0 kts | 354° |
| 2026-04-24 20:35 | 41.26670 | 28.74031 | 331 ft | 25 kts | 345° |
| 2026-04-24 20:36 | 41.26838 | 28.74019 | 334 ft | 18 kts | 2° |
| 2026-04-24 20:36 | 41.26959 | 28.74013 | 334 ft | 13 kts | 358° |
| 2026-04-24 20:36 | 41.27045 | 28.73987 | 331 ft | 14 kts | 310° |
| 2026-04-24 20:36 | 41.27051 | 28.73864 | 334 ft | 10 kts | 266° |
| 2026-04-24 20:37 | 41.27049 | 28.73732 | 334 ft | 17 kts | 270° |
| 2026-04-24 20:37 | 41.27048 | 28.73564 | 334 ft | 18 kts | 268° |
| 2026-04-24 20:37 | 41.27044 | 28.73360 | 334 ft | 24 kts | 270° |
| 2026-04-24 20:37 | 41.27044 | 28.73269 | 334 ft | 2 kts | 270° |
| 2026-04-24 20:38 | 41.27043 | 28.73128 | 334 ft | 21 kts | 268° |
| 2026-04-24 20:38 | 41.27057 | 28.72993 | 329 ft | 15 kts | 321° |
| 2026-04-24 20:38 | 41.27197 | 28.72984 | 329 ft | 17 kts | 359° |
| 2026-04-24 20:38 | 41.27342 | 28.72980 | 333 ft | 23 kts | 358° |
| 2026-04-24 20:39 | 41.27515 | 28.72975 | 334 ft | 27 kts | 359° |
| 2026-04-24 20:39 | 41.27714 | 28.72968 | 334 ft | 29 kts | 358° |
| 2026-04-24 20:39 | 41.27924 | 28.72964 | 334 ft | 32 kts | 359° |
| 2026-04-24 20:39 | 41.28097 | 28.72961 | 330 ft | 22 kts | 359° |
| 2026-04-24 20:40 | 41.28262 | 28.72957 | 332 ft | 25 kts | 360° |
| 2026-04-24 20:40 | 41.28450 | 28.72954 | 331 ft | 28 kts | 358° |
| 2026-04-24 20:40 | 41.28657 | 28.72947 | 332 ft | 32 kts | 359° |
| 2026-04-24 20:40 | 41.28935 | 28.72942 | 331 ft | 37 kts | 359° |
| 2026-04-24 20:41 | 41.29154 | 28.72935 | 334 ft | 31 kts | 359° |
| 2026-04-24 20:41 | 41.29311 | 28.72934 | 330 ft | 19 kts | 359° |
| 2026-04-24 20:41 | 41.29440 | 28.72931 | 332 ft | 16 kts | 357° |
| 2026-04-24 20:41 | 41.29591 | 28.72928 | 330 ft | 21 kts | 360° |
| 2026-04-24 20:42 | 41.29710 | 28.72878 | 332 ft | 16 kts | 300° |
| 2026-04-24 20:42 | 41.29715 | 28.72860 | 331 ft | 0 kts | 285° |
| 2026-04-24 20:42 | 41.29714 | 28.72806 | 333 ft | 18 kts | 264° |
| 2026-04-24 20:43 | 41.29785 | 28.72683 | 331 ft | 21 kts | 356° |
| 2026-04-24 20:43 | 41.29878 | 28.72582 | 333 ft | 13 kts | 267° |
| 2026-04-24 20:43 | 41.29877 | 28.72571 | 331 ft | 0 kts | 266° |
| 2026-04-24 20:45 | 41.29875 | 28.72514 | 334 ft | 16 kts | 266° |
| 2026-04-24 20:45 | 41.29806 | 28.72442 | 331 ft | 7 kts | 176° |
| 2026-04-24 20:45 | 41.29804 | 28.72443 | 331 ft | 0 kts | 176° |
| 2026-04-24 20:46 | 41.29769 | 28.72446 | 332 ft | 25 kts | 176° |
| 2026-04-24 20:46 | 41.29357 | 28.72455 | 331 ft | 91 kts | 179° |
| 2026-04-24 20:46 | 41.28542 | 28.72473 | 331 ft | 140 kts | 179° |
| 2026-04-24 20:47 | 41.27481 | 28.72510 | 649 ft | 153 kts | 178° |
| 2026-04-24 20:47 | 41.26408 | 28.72498 | 1200 ft | 156 kts | 182° |
| 2026-04-24 20:47 | 41.25303 | 28.72441 | 1755 ft | 161 kts | 181° |
| 2026-04-24 20:47 | 41.24153 | 28.72426 | 2252 ft | 168 kts | 179° |
| 2026-04-24 20:48 | 41.22948 | 28.72473 | 2613 ft | 184 kts | 175° |
| 2026-04-24 20:48 | 41.21601 | 28.72632 | 2955 ft | 205 kts | 174° |
| 2026-04-24 20:48 | 41.20089 | 28.72618 | 3298 ft | 231 kts | 193° |
| 2026-04-24 20:48 | 41.18625 | 28.71576 | 3922 ft | 247 kts | 225° |
| 2026-04-24 20:49 | 41.17713 | 28.69674 | 4865 ft | 252 kts | 252° |
| 2026-04-24 20:49 | 41.17331 | 28.67309 | 5536 ft | 269 kts | 261° |
| 2026-04-24 20:49 | 41.17013 | 28.64832 | 6525 ft | 273 kts | 262° |
| 2026-04-24 20:49 | 41.16690 | 28.62330 | 7497 ft | 278 kts | 262° |
| 2026-04-24 20:50 | 41.16350 | 28.59786 | 8481 ft | 282 kts | 262° |
| 2026-04-24 20:50 | 41.15997 | 28.57206 | 9468 ft | 287 kts | 262° |
| 2026-04-24 20:50 | 41.15632 | 28.54581 | 10355 ft | 294 kts | 262° |
| 2026-04-24 20:50 | 41.15247 | 28.51803 | 10775 ft | 318 kts | 262° |
| 2026-04-24 20:51 | 41.14831 | 28.48816 | 11152 ft | 339 kts | 262° |
| 2026-04-24 20:51 | 41.14394 | 28.45704 | 11911 ft | 346 kts | 262° |
| 2026-04-24 20:51 | 41.13948 | 28.42547 | 12780 ft | 350 kts | 262° |
| 2026-04-24 20:51 | 41.13496 | 28.39353 | 13619 ft | 355 kts | 261° |
| 2026-04-24 20:52 | 41.13038 | 28.36115 | 14386 ft | 360 kts | 261° |
| 2026-04-24 20:52 | 41.12583 | 28.32876 | 15133 ft | 363 kts | 262° |
| 2026-04-24 20:52 | 41.12120 | 28.29551 | 15872 ft | 367 kts | 262° |
| 2026-04-24 20:52 | 41.11649 | 28.26201 | 16612 ft | 371 kts | 262° |
| 2026-04-24 20:53 | 41.11171 | 28.22822 | 17339 ft | 375 kts | 262° |
| 2026-04-24 20:53 | 41.10683 | 28.19402 | 18067 ft | 380 kts | 261° |
| 2026-04-24 20:53 | 41.10184 | 28.15922 | 18713 ft | 384 kts | 261° |
| 2026-04-24 20:53 | 41.09683 | 28.12433 | 19362 ft | 387 kts | 261° |
| 2026-04-24 20:54 | 41.09177 | 28.08919 | 19974 ft | 391 kts | 261° |
| 2026-04-24 20:54 | 41.08663 | 28.05355 | 20571 ft | 396 kts | 261° |
| 2026-04-24 20:54 | 41.08142 | 28.01746 | 21172 ft | 400 kts | 261° |
| 2026-04-24 20:54 | 41.07612 | 27.98088 | 21802 ft | 404 kts | 261° |
| 2026-04-24 20:55 | 41.07077 | 27.94409 | 22397 ft | 408 kts | 261° |
| 2026-04-24 20:55 | 41.06545 | 27.90765 | 22967 ft | 412 kts | 261° |
| 2026-04-24 20:55 | 41.05996 | 27.87011 | 23562 ft | 416 kts | 261° |
| 2026-04-24 20:55 | 41.05443 | 27.83230 | 24048 ft | 420 kts | 261° |
| 2026-04-24 20:56 | 41.04883 | 27.79408 | 24506 ft | 425 kts | 261° |
| 2026-04-24 20:56 | 41.04316 | 27.75547 | 24976 ft | 429 kts | 261° |
| 2026-04-24 20:56 | 41.03743 | 27.71650 | 25427 ft | 433 kts | 261° |
| 2026-04-24 20:56 | 41.03165 | 27.67727 | 25870 ft | 437 kts | 261° |
| 2026-04-24 20:57 | 41.02579 | 27.63762 | 26298 ft | 441 kts | 261° |
| 2026-04-24 20:57 | 41.01987 | 27.59764 | 26726 ft | 444 kts | 261° |
| 2026-04-24 20:57 | 41.01388 | 27.55734 | 27140 ft | 448 kts | 261° |
| 2026-04-24 20:57 | 41.00783 | 27.51668 | 27538 ft | 452 kts | 261° |
| 2026-04-24 20:58 | 41.00171 | 27.47571 | 27927 ft | 456 kts | 261° |
| 2026-04-24 20:58 | 40.99551 | 27.43428 | 28258 ft | 461 kts | 261° |
| 2026-04-24 20:58 | 40.98925 | 27.39255 | 28645 ft | 464 kts | 261° |
| 2026-04-24 20:58 | 40.98291 | 27.35043 | 29018 ft | 467 kts | 261° |
| 2026-04-24 20:59 | 40.97652 | 27.30815 | 29377 ft | 470 kts | 261° |
| 2026-04-24 20:59 | 40.97007 | 27.26547 | 29717 ft | 474 kts | 261° |
| 2026-04-24 20:59 | 40.96364 | 27.22309 | 30059 ft | 477 kts | 261° |
| 2026-04-24 20:59 | 40.95707 | 27.17993 | 30382 ft | 480 kts | 261° |
| 2026-04-24 21:00 | 40.95045 | 27.13651 | 30713 ft | 482 kts | 261° |
| 2026-04-24 21:00 | 40.94380 | 27.09298 | 31040 ft | 484 kts | 261° |
| 2026-04-24 21:00 | 40.93709 | 27.04923 | 31420 ft | 485 kts | 260° |
| 2026-04-24 21:00 | 40.93037 | 27.00548 | 31859 ft | 484 kts | 260° |
| 2026-04-24 21:01 | 40.92503 | 26.96166 | 32271 ft | 483 kts | 266° |
| 2026-04-24 21:01 | 40.92246 | 26.91728 | 32699 ft | 481 kts | 268° |
| 2026-04-24 21:01 | 40.92000 | 26.87314 | 33127 ft | 480 kts | 267° |
| 2026-04-24 21:01 | 40.91751 | 26.82920 | 33494 ft | 481 kts | 267° |
| 2026-04-24 21:02 | 40.91497 | 26.78518 | 33885 ft | 480 kts | 267° |
| 2026-04-24 21:02 | 40.91242 | 26.74174 | 34256 ft | 479 kts | 267° |
| 2026-04-24 21:02 | 40.90983 | 26.69807 | 34674 ft | 475 kts | 267° |
| 2026-04-24 21:02 | 40.90723 | 26.65454 | 35093 ft | 472 kts | 267° |
| 2026-04-24 21:03 | 40.90464 | 26.61146 | 35488 ft | 469 kts | 267° |
| 2026-04-24 21:03 | 40.90205 | 26.56864 | 35861 ft | 467 kts | 267° |
| 2026-04-24 21:03 | 40.89944 | 26.52580 | 36004 ft | 466 kts | 267° |
| 2026-04-24 21:03 | 40.89684 | 26.48328 | 36029 ft | 465 kts | 267° |
| 2026-04-24 21:04 | 40.89159 | 26.39822 | 36028 ft | 464 kts | 267° |
| 2026-04-24 21:04 | 40.88626 | 26.31282 | 36029 ft | 466 kts | 266° |
| 2026-04-24 21:05 | 40.87978 | 26.22757 | 36026 ft | 468 kts | 262° |
| 2026-04-24 21:05 | 40.86970 | 26.14261 | 35838 ft | 469 kts | 262° |
| 2026-04-24 21:06 | 40.86481 | 26.10052 | 35587 ft | 469 kts | 262° |
| 2026-04-24 21:06 | 40.85980 | 26.05741 | 35334 ft | 470 kts | 262° |
| 2026-04-24 21:06 | 40.85486 | 26.01515 | 35091 ft | 472 kts | 262° |
| 2026-04-24 21:06 | 40.84982 | 25.97221 | 34847 ft | 474 kts | 262° |
| 2026-04-24 21:07 | 40.84470 | 25.92894 | 34598 ft | 476 kts | 262° |
| 2026-04-24 21:07 | 40.83957 | 25.88573 | 34359 ft | 477 kts | 262° |
| 2026-04-24 21:07 | 40.83440 | 25.84235 | 34121 ft | 479 kts | 262° |
| 2026-04-24 21:07 | 40.82918 | 25.79870 | 33867 ft | 481 kts | 262° |
| 2026-04-24 21:08 | 40.82394 | 25.75518 | 33591 ft | 482 kts | 262° |
| 2026-04-24 21:08 | 40.81864 | 25.71146 | 33318 ft | 482 kts | 262° |
| 2026-04-24 21:08 | 40.81335 | 25.66785 | 33048 ft | 482 kts | 262° |
| 2026-04-24 21:08 | 40.80802 | 25.62402 | 32774 ft | 483 kts | 262° |
| 2026-04-24 21:09 | 40.80267 | 25.58005 | 32515 ft | 484 kts | 262° |
| 2026-04-24 21:09 | 40.79733 | 25.53626 | 32251 ft | 484 kts | 262° |
| 2026-04-24 21:09 | 40.79195 | 25.49230 | 31989 ft | 485 kts | 262° |
| 2026-04-24 21:09 | 40.78656 | 25.44846 | 31734 ft | 485 kts | 262° |
| 2026-04-24 21:10 | 40.78116 | 25.40459 | 31480 ft | 486 kts | 262° |
| 2026-04-24 21:10 | 40.77570 | 25.36038 | 31223 ft | 486 kts | 262° |
| 2026-04-24 21:10 | 40.77031 | 25.31695 | 30968 ft | 487 kts | 262° |
| 2026-04-24 21:10 | 40.76485 | 25.27288 | 30735 ft | 488 kts | 262° |
| 2026-04-24 21:11 | 40.75936 | 25.22866 | 30490 ft | 488 kts | 262° |
| 2026-04-24 21:11 | 40.75386 | 25.18456 | 30242 ft | 486 kts | 262° |
| 2026-04-24 21:11 | 40.74836 | 25.14077 | 29991 ft | 484 kts | 262° |
| 2026-04-24 21:11 | 40.74287 | 25.09710 | 29702 ft | 481 kts | 262° |
| 2026-04-24 21:12 | 40.73738 | 25.05370 | 29417 ft | 479 kts | 262° |
| 2026-04-24 21:12 | 40.73369 | 25.02456 | 29244 ft | 477 kts | 262° |
| 2026-04-24 21:12 | 40.72646 | 24.96767 | 28855 ft | 474 kts | 262° |
| 2026-04-24 21:12 | 40.72099 | 24.92478 | 28581 ft | 472 kts | 262° |
| 2026-04-24 21:13 | 40.71555 | 24.88226 | 28304 ft | 469 kts | 262° |
| 2026-04-24 21:13 | 40.71012 | 24.83997 | 28039 ft | 467 kts | 262° |
| 2026-04-24 21:13 | 40.70470 | 24.79784 | 27771 ft | 465 kts | 262° |
| 2026-04-24 21:13 | 40.69928 | 24.75591 | 27515 ft | 463 kts | 262° |
| 2026-04-24 21:14 | 40.69390 | 24.71430 | 27263 ft | 460 kts | 262° |
| 2026-04-24 21:14 | 40.68856 | 24.67320 | 27003 ft | 460 kts | 262° |
| 2026-04-24 21:14 | 40.68316 | 24.63174 | 26744 ft | 458 kts | 262° |
| 2026-04-24 21:14 | 40.67778 | 24.59056 | 26491 ft | 455 kts | 262° |
| 2026-04-24 21:15 | 40.67241 | 24.54956 | 26239 ft | 453 kts | 262° |
| 2026-04-24 21:15 | 40.66705 | 24.50880 | 25986 ft | 451 kts | 262° |
| 2026-04-24 21:15 | 40.66170 | 24.46817 | 25732 ft | 449 kts | 262° |
| 2026-04-24 21:15 | 40.65634 | 24.42761 | 25485 ft | 447 kts | 262° |
| 2026-04-24 21:16 | 40.65103 | 24.38754 | 25263 ft | 445 kts | 262° |
| 2026-04-24 21:16 | 40.64570 | 24.34737 | 25052 ft | 444 kts | 262° |
| 2026-04-24 21:16 | 40.64037 | 24.30737 | 25022 ft | 443 kts | 262° |
| 2026-04-24 21:16 | 40.63502 | 24.26728 | 25024 ft | 444 kts | 262° |
| 2026-04-24 21:17 | 40.62965 | 24.22720 | 25025 ft | 444 kts | 261° |
| 2026-04-24 21:17 | 40.62434 | 24.18762 | 25024 ft | 444 kts | 261° |
| 2026-04-24 21:17 | 40.61889 | 24.14718 | 25029 ft | 444 kts | 261° |
| 2026-04-24 21:17 | 40.61529 | 24.12051 | 25025 ft | 446 kts | 261° |
| 2026-04-24 21:18 | 40.60802 | 24.06676 | 25022 ft | 446 kts | 261° |
| 2026-04-24 21:18 | 40.60256 | 24.02656 | 25024 ft | 447 kts | 261° |
| 2026-04-24 21:18 | 40.59714 | 23.98677 | 25027 ft | 447 kts | 261° |
| 2026-04-24 21:18 | 40.59164 | 23.94647 | 25026 ft | 447 kts | 261° |
| 2026-04-24 21:19 | 40.58612 | 23.90617 | 25025 ft | 447 kts | 261° |
| 2026-04-24 21:19 | 40.58057 | 23.86574 | 25026 ft | 447 kts | 261° |
| 2026-04-24 21:19 | 40.57504 | 23.82559 | 25027 ft | 447 kts | 261° |
| 2026-04-24 21:19 | 40.56952 | 23.78555 | 25027 ft | 447 kts | 261° |
| 2026-04-24 21:20 | 40.55836 | 23.70501 | 25030 ft | 447 kts | 261° |
| 2026-04-24 21:20 | 40.55275 | 23.66471 | 25029 ft | 447 kts | 261° |
| 2026-04-24 21:20 | 40.54716 | 23.62459 | 25031 ft | 447 kts | 261° |
| 2026-04-24 21:21 | 40.54151 | 23.58424 | 25033 ft | 447 kts | 261° |
| 2026-04-24 21:21 | 40.53586 | 23.54387 | 25032 ft | 450 kts | 261° |
| 2026-04-24 21:21 | 40.53024 | 23.50390 | 25031 ft | 450 kts | 261° |
| 2026-04-24 21:21 | 40.52455 | 23.46351 | 25032 ft | 450 kts | 261° |
| 2026-04-24 21:22 | 40.51884 | 23.42319 | 25021 ft | 450 kts | 261° |
| 2026-04-24 21:22 | 40.51311 | 23.38278 | 25027 ft | 450 kts | 261° |
| 2026-04-24 21:22 | 40.50739 | 23.34248 | 25027 ft | 450 kts | 261° |
| 2026-04-24 21:22 | 40.50348 | 23.31504 | 25026 ft | 450 kts | 261° |
| 2026-04-24 21:23 | 40.49774 | 23.27477 | 25026 ft | 450 kts | 261° |
| 2026-04-24 21:23 | 40.49196 | 23.23442 | 25021 ft | 449 kts | 261° |
| 2026-04-24 21:23 | 40.48617 | 23.19401 | 25021 ft | 450 kts | 261° |
| 2026-04-24 21:23 | 40.48018 | 23.15373 | 25018 ft | 449 kts | 257° |
| 2026-04-24 21:24 | 40.46941 | 23.11530 | 25021 ft | 451 kts | 242° |
| 2026-04-24 21:24 | 40.45219 | 23.08148 | 25018 ft | 452 kts | 228° |
| 2026-04-24 21:24 | 40.42919 | 23.05365 | 25021 ft | 449 kts | 213° |
| 2026-04-24 21:24 | 40.40194 | 23.03385 | 25001 ft | 445 kts | 199° |
| 2026-04-24 21:25 | 40.37239 | 23.02312 | 24794 ft | 438 kts | 184° |
| 2026-04-24 21:25 | 40.34218 | 23.02216 | 24557 ft | 429 kts | 169° |
| 2026-04-24 21:25 | 40.31354 | 23.03092 | 24325 ft | 419 kts | 154° |
| 2026-04-24 21:25 | 40.28814 | 23.04860 | 24093 ft | 410 kts | 140° |
| 2026-04-24 21:26 | 40.26524 | 23.07069 | 23862 ft | 409 kts | 140° |
| 2026-04-24 21:26 | 40.24138 | 23.09116 | 23629 ft | 410 kts | 145° |
| 2026-04-24 21:26 | 40.21639 | 23.10837 | 23397 ft | 411 kts | 150° |
| 2026-04-24 21:26 | 40.19022 | 23.12346 | 23125 ft | 409 kts | 153° |
| 2026-04-24 21:27 | 40.16377 | 23.13718 | 22860 ft | 409 kts | 154° |
| 2026-04-24 21:27 | 40.13721 | 23.15034 | 22586 ft | 408 kts | 155° |
| 2026-04-24 21:27 | 40.11055 | 23.16338 | 22313 ft | 407 kts | 155° |
| 2026-04-24 21:27 | 40.08412 | 23.17632 | 21809 ft | 406 kts | 155° |
| 2026-04-24 21:28 | 40.05766 | 23.18930 | 21254 ft | 403 kts | 155° |
| 2026-04-24 21:28 | 40.03156 | 23.20212 | 20759 ft | 398 kts | 155° |
| 2026-04-24 21:28 | 40.00589 | 23.21473 | 20414 ft | 388 kts | 155° |
| 2026-04-24 21:28 | 39.98110 | 23.22688 | 20271 ft | 374 kts | 155° |
| 2026-04-24 21:29 | 39.95707 | 23.23865 | 19962 ft | 365 kts | 155° |
| 2026-04-24 21:29 | 39.93342 | 23.25029 | 19457 ft | 363 kts | 155° |
| 2026-04-24 21:29 | 39.90989 | 23.26188 | 18989 ft | 361 kts | 155° |
| 2026-04-24 21:29 | 39.88646 | 23.27341 | 18511 ft | 358 kts | 155° |
| 2026-04-24 21:30 | 39.86346 | 23.28470 | 18019 ft | 356 kts | 155° |
| 2026-04-24 21:30 | 39.84042 | 23.29600 | 17517 ft | 353 kts | 155° |
| 2026-04-24 21:30 | 39.81744 | 23.30726 | 17017 ft | 351 kts | 156° |
| 2026-04-24 21:30 | 39.79446 | 23.31851 | 16523 ft | 348 kts | 156° |
| 2026-04-24 21:31 | 39.77218 | 23.32941 | 16079 ft | 345 kts | 156° |
| 2026-04-24 21:31 | 39.74976 | 23.34037 | 15481 ft | 346 kts | 156° |
| 2026-04-24 21:31 | 39.72692 | 23.35157 | 14605 ft | 353 kts | 156° |
| 2026-04-24 21:31 | 39.70358 | 23.36300 | 13373 ft | 364 kts | 156° |
| 2026-04-24 21:32 | 39.67989 | 23.37453 | 12488 ft | 360 kts | 156° |
| 2026-04-24 21:32 | 39.65676 | 23.38572 | 11973 ft | 347 kts | 156° |
| 2026-04-24 21:32 | 39.63430 | 23.39661 | 11702 ft | 346 kts | 156° |
| 2026-04-24 21:32 | 39.61197 | 23.40745 | 11528 ft | 337 kts | 156° |
| 2026-04-24 21:33 | 39.59054 | 23.41782 | 11397 ft | 323 kts | 156° |
| 2026-04-24 21:33 | 39.56986 | 23.42783 | 11281 ft | 311 kts | 156° |
| 2026-04-24 21:33 | 39.54992 | 23.43748 | 11140 ft | 299 kts | 155° |
| 2026-04-24 21:33 | 39.53062 | 23.44682 | 10817 ft | 295 kts | 155° |
| 2026-04-24 21:34 | 39.51169 | 23.45601 | 10405 ft | 294 kts | 155° |
| 2026-04-24 21:34 | 39.49260 | 23.46527 | 10025 ft | 292 kts | 155° |
| 2026-04-24 21:34 | 39.47364 | 23.47446 | 9708 ft | 291 kts | 155° |
| 2026-04-24 21:34 | 39.45480 | 23.48356 | 9602 ft | 280 kts | 155° |
| 2026-04-24 21:35 | 39.43693 | 23.49217 | 9488 ft | 268 kts | 155° |
| 2026-04-24 21:35 | 39.42005 | 23.50030 | 9349 ft | 258 kts | 154° |
| 2026-04-24 21:35 | 39.40311 | 23.50850 | 9024 ft | 255 kts | 154° |
| 2026-04-24 21:35 | 39.38677 | 23.51644 | 8679 ft | 254 kts | 154° |
| 2026-04-24 21:36 | 39.37029 | 23.52445 | 8341 ft | 253 kts | 155° |
| 2026-04-24 21:36 | 39.35387 | 23.53241 | 8011 ft | 252 kts | 155° |
| 2026-04-24 21:36 | 39.33748 | 23.54034 | 7685 ft | 250 kts | 155° |
| 2026-04-24 21:36 | 39.32131 | 23.54814 | 7436 ft | 243 kts | 155° |
| 2026-04-24 21:37 | 39.30571 | 23.55568 | 7144 ft | 239 kts | 156° |
| 2026-04-24 21:37 | 39.29014 | 23.56323 | 6786 ft | 239 kts | 156° |
| 2026-04-24 21:37 | 39.27463 | 23.57074 | 6447 ft | 238 kts | 156° |
| 2026-04-24 21:37 | 39.25913 | 23.57821 | 6088 ft | 237 kts | 156° |
| 2026-04-24 21:38 | 39.24374 | 23.58563 | 5734 ft | 236 kts | 156° |
| 2026-04-24 21:38 | 39.22843 | 23.59300 | 5389 ft | 235 kts | 156° |
| 2026-04-24 21:38 | 39.21319 | 23.60033 | 5042 ft | 234 kts | 157° |
| 2026-04-24 21:38 | 39.19796 | 23.60766 | 4728 ft | 233 kts | 157° |
| 2026-04-24 21:39 | 39.18240 | 23.61300 | 4399 ft | 234 kts | 178° |
| 2026-04-24 21:39 | 39.16682 | 23.60835 | 4120 ft | 230 kts | 205° |
| 2026-04-24 21:39 | 39.15271 | 23.59916 | 4026 ft | 223 kts | 208° |
| 2026-04-24 21:39 | 39.13908 | 23.58966 | 4029 ft | 224 kts | 208° |
| 2026-04-24 21:40 | 39.12537 | 23.58019 | 4028 ft | 224 kts | 208° |
| 2026-04-24 21:40 | 39.11160 | 23.57090 | 3905 ft | 222 kts | 207° |
| 2026-04-24 21:40 | 39.09815 | 23.56200 | 3822 ft | 212 kts | 207° |
| 2026-04-24 21:40 | 39.08534 | 23.55362 | 3720 ft | 201 kts | 207° |
| 2026-04-24 21:41 | 39.07317 | 23.54568 | 3497 ft | 194 kts | 207° |
| 2026-04-24 21:41 | 39.06106 | 23.53780 | 3104 ft | 196 kts | 207° |
| 2026-04-24 21:41 | 39.04887 | 23.52987 | 2767 ft | 195 kts | 207° |
| 2026-04-24 21:41 | 39.03677 | 23.52200 | 2420 ft | 194 kts | 207° |
| 2026-04-24 21:42 | 39.02504 | 23.51381 | 2112 ft | 190 kts | 219° |
| 2026-04-24 21:42 | 39.01821 | 23.49989 | 2037 ft | 189 kts | 261° |
| 2026-04-24 21:42 | 39.01982 | 23.48412 | 2024 ft | 170 kts | 302° |
| 2026-04-24 21:42 | 39.02755 | 23.47409 | 2038 ft | 160 kts | 330° |
| 2026-04-24 21:43 | 39.03795 | 23.46896 | 2034 ft | 159 kts | 350° |
| 2026-04-24 21:43 | 39.04882 | 23.46806 | 2035 ft | 159 kts | 3° |
| 2026-04-24 21:43 | 39.05978 | 23.46963 | 2035 ft | 159 kts | 9° |
| 2026-04-24 21:43 | 39.07061 | 23.47233 | 2033 ft | 158 kts | 12° |
| 2026-04-24 21:44 | 39.08140 | 23.47539 | 1957 ft | 158 kts | 12° |
| 2026-04-24 21:44 | 39.09174 | 23.47832 | 1746 ft | 151 kts | 11° |
| 2026-04-24 21:44 | 39.10221 | 23.48013 | 1416 ft | 143 kts | 4° |
| 2026-04-24 21:44 | 39.11169 | 23.48069 | 1203 ft | 136 kts | 2° |
| 2026-04-24 21:45 | 39.12101 | 23.48177 | 980 ft | 134 kts | 9° |
| 2026-04-24 21:45 | 39.13012 | 23.48435 | 861 ft | 135 kts | 13° |
| 2026-04-24 21:45 | 39.13924 | 23.48722 | 696 ft | 137 kts | 13° |
| 2026-04-24 21:45 | 39.14846 | 23.49030 | 430 ft | 136 kts | 18° |
| 2026-04-24 21:46 | 39.15730 | 23.49461 | 244 ft | 135 kts | 19° |
| 2026-04-24 21:46 | 39.16612 | 23.49860 | 146 ft | 135 kts | 20° |
| 2026-04-24 21:46 | 39.17487 | 23.50257 | 34 ft | 124 kts | 19° |
| 2026-04-24 21:46 | 39.17925 | 23.50445 | 42 ft | 11 kts | 12° |
| 2026-04-24 21:47 | 39.17936 | 23.50421 | 41 ft | 5 kts | 258° |
| 2026-04-24 21:47 | 39.17923 | 23.50380 | 42 ft | 10 kts | 246° |
| 2026-04-24 21:47 | 39.17860 | 23.50290 | 41 ft | 7 kts | 258° |
| 2026-04-24 21:47 | 39.17870 | 23.50242 | 47 ft | 3 kts | 288° |
| 2026-04-24 21:48 | 39.17872 | 23.50235 | 48 ft | 0 kts | 288° |
| 2026-04-24 21:48 | 39.17874 | 23.50226 | 50 ft | 0 kts | 288° |